createdAt,value
2023-04-18T00:02:09.216Z,11.95
2023-04-18T00:04:56.750Z,11.65
2023-04-18T00:07:44.707Z,11.50
2023-04-18T00:10:33.282Z,10.90
2023-04-18T00:13:20.340Z,11.75
2023-04-18T00:16:08.792Z,11.18
2023-04-18T00:18:57.278Z,11.27
2023-04-18T00:21:45.212Z,11.00
2023-04-18T00:24:32.330Z,10.80
2023-04-18T00:27:20.587Z,12.15
2023-04-18T00:30:09.023Z,11.45
2023-04-18T00:32:56.167Z,12.52
2023-04-18T00:35:43.236Z,11.57
2023-04-18T00:38:30.410Z,10.48
2023-04-18T00:41:17.602Z,10.43
2023-04-18T00:44:04.839Z,10.60
2023-04-18T00:46:51.938Z,11.98
2023-04-18T00:49:39.222Z,11.80
2023-04-18T00:52:27.482Z,11.27
2023-04-18T00:55:14.799Z,10.32
2023-04-18T00:58:01.999Z,11.82
2023-04-18T01:00:49.088Z,11.90
2023-04-18T01:03:37.583Z,11.60
2023-04-18T01:06:25.925Z,12.18
2023-04-18T01:09:14.074Z,11.68
2023-04-18T01:12:01.932Z,12.32
2023-04-18T01:14:49.032Z,11.70
2023-04-18T01:17:36.174Z,12.73
2023-04-18T01:20:23.389Z,14.13
2023-04-18T01:23:13.225Z,15.13
2023-04-18T01:26:00.365Z,13.45
2023-04-18T01:28:47.442Z,15.02
2023-04-18T01:31:36.378Z,13.13
2023-04-18T01:34:23.588Z,13.63
2023-04-18T01:37:10.751Z,14.07
2023-04-18T01:39:58.518Z,13.43
2023-04-18T01:42:45.601Z,14.48
2023-04-18T01:45:32.684Z,13.50
2023-04-18T01:48:20.116Z,14.32
2023-04-18T01:51:07.200Z,14.35
2023-04-18T01:53:54.393Z,15.55
2023-04-18T01:56:41.484Z,16.73
2023-04-18T01:59:28.564Z,16.15
2023-04-18T02:02:15.968Z,14.93
2023-04-18T02:05:03.053Z,15.15
2023-04-18T02:07:50.457Z,15.07
2023-04-18T02:10:38.116Z,14.93
2023-04-18T02:13:25.213Z,14.40
2023-04-18T02:16:13.827Z,15.48
2023-04-18T02:19:01.648Z,15.27
2023-04-18T02:21:48.692Z,15.25
2023-04-18T02:24:35.749Z,14.85
2023-04-18T02:27:22.785Z,15.77
2023-04-18T02:30:10.278Z,15.13
2023-04-18T02:32:57.527Z,14.98
2023-04-18T02:35:44.626Z,16.48
2023-04-18T02:38:31.961Z,16.73
2023-04-18T02:41:19.651Z,15.55
2023-04-18T02:44:08.209Z,16.58
2023-04-18T02:46:55.313Z,18.15
2023-04-18T02:49:42.320Z,16.73
2023-04-18T02:52:29.407Z,16.23
2023-04-18T02:55:16.614Z,15.98
2023-04-18T02:58:03.662Z,14.73
2023-04-18T03:00:53.622Z,16.05
2023-04-18T03:06:27.690Z,15.45
2023-04-18T03:09:15.199Z,16.35
2023-04-18T03:12:04.856Z,16.05
2023-04-18T03:14:52.001Z,16.98
2023-04-18T03:17:39.567Z,16.65
2023-04-18T03:20:26.761Z,16.38
2023-04-18T03:23:13.805Z,16.08
2023-04-18T03:26:01.130Z,15.20
2023-04-18T03:28:48.210Z,16.05
2023-04-18T03:31:35.485Z,17.17
2023-04-18T03:34:22.583Z,16.50
2023-04-18T03:37:09.682Z,16.50
2023-04-18T03:39:57.291Z,15.70
2023-04-18T03:42:44.394Z,16.10
2023-04-18T03:45:31.525Z,16.33
2023-04-18T03:48:18.582Z,16.17
2023-04-18T03:51:06.383Z,15.07
2023-04-18T03:53:53.500Z,16.52
2023-04-18T03:56:41.501Z,16.58
2023-04-18T03:59:28.618Z,16.23
2023-04-18T04:02:16.126Z,16.80
2023-04-18T04:05:03.581Z,17.13
2023-04-18T04:07:50.659Z,16.55
2023-04-18T04:10:37.768Z,16.33
2023-04-18T04:13:24.872Z,16.73
2023-04-18T04:16:12.140Z,17.40
2023-04-18T04:18:59.297Z,16.95
2023-04-18T04:21:46.328Z,18.25
2023-04-18T04:24:33.835Z,17.27
2023-04-18T04:27:20.902Z,16.15
2023-04-18T04:30:12.755Z,17.55
2023-04-18T04:33:02.005Z,17.85
2023-04-18T04:35:49.862Z,16.98
2023-04-18T04:38:40.728Z,15.82
2023-04-18T04:41:27.940Z,15.55
2023-04-18T04:44:17.796Z,15.75
2023-04-18T04:47:05.089Z,15.10
2023-04-18T04:49:52.506Z,16.58
2023-04-18T04:52:40.291Z,16.60
2023-04-18T04:55:27.595Z,15.50
2023-04-18T04:58:15.432Z,14.77
2023-04-18T05:01:02.662Z,16.60
2023-04-18T05:03:51.658Z,16.00
2023-04-18T05:06:40.282Z,17.70
2023-04-18T05:09:27.486Z,15.90
2023-04-18T05:12:14.564Z,16.08
2023-04-18T05:15:01.835Z,15.32
2023-04-18T05:17:48.970Z,16.65
2023-04-18T05:20:36.119Z,15.48
2023-04-18T05:23:23.220Z,16.25
2023-04-18T05:26:10.262Z,15.90
2023-04-18T05:28:57.484Z,16.25
2023-04-18T05:31:46.984Z,17.02
2023-04-18T05:34:39.002Z,17.98
2023-04-18T05:37:26.310Z,16.13
2023-04-18T05:40:14.116Z,15.43
2023-04-18T05:43:01.260Z,14.93
2023-04-18T05:45:48.484Z,15.85
2023-04-18T05:48:35.580Z,14.93
2023-04-18T05:51:22.844Z,14.65
2023-04-18T05:54:09.979Z,15.82
2023-04-18T05:56:57.425Z,15.73
2023-04-18T05:59:44.594Z,17.40
2023-04-18T06:02:32.177Z,15.00
2023-04-18T06:05:19.804Z,16.55
2023-04-18T06:08:07.637Z,16.08
2023-04-18T06:10:54.715Z,15.57
2023-04-18T06:13:42.046Z,15.25
2023-04-18T06:16:29.209Z,15.55
2023-04-18T06:19:16.388Z,16.05
2023-04-18T06:22:03.438Z,15.25
2023-04-18T06:24:50.967Z,16.02
2023-04-18T06:27:38.480Z,16.38
2023-04-18T06:30:25.800Z,15.10
2023-04-18T06:33:12.825Z,14.55
2023-04-18T06:36:00.004Z,14.75
2023-04-18T06:38:47.251Z,16.50
2023-04-18T06:41:34.316Z,14.13
2023-04-18T06:44:21.389Z,15.52
2023-04-18T06:47:08.850Z,16.08
2023-04-18T06:49:55.970Z,15.10
2023-04-18T06:52:45.681Z,15.00
2023-04-18T06:55:32.819Z,14.25
2023-04-18T06:58:19.919Z,16.70
2023-04-18T07:01:07.596Z,16.38
2023-04-18T07:03:54.838Z,17.13
2023-04-18T07:06:42.802Z,16.05
2023-04-18T07:09:29.868Z,16.83
2023-04-18T07:12:16.893Z,16.33
2023-04-18T07:15:04.915Z,15.95
2023-04-18T07:17:52.106Z,17.73
2023-04-18T07:20:39.222Z,17.73
2023-04-18T07:23:26.266Z,17.67
2023-04-18T07:26:13.837Z,17.80
2023-04-18T07:29:00.956Z,17.40
2023-04-18T07:31:48.406Z,19.23
2023-04-18T07:34:36.281Z,18.55
2023-04-18T07:37:24.085Z,18.40
2023-04-18T07:40:11.651Z,17.05
2023-04-18T07:42:58.718Z,19.17
2023-04-18T07:45:45.868Z,19.27
2023-04-18T07:48:33.026Z,18.92
2023-04-18T07:51:20.136Z,19.35
2023-04-18T07:54:32.520Z,19.25
2023-04-18T07:57:19.633Z,19.48
2023-04-18T08:00:07.822Z,18.15
2023-04-18T08:02:55.057Z,20.25
2023-04-18T08:05:43.325Z,19.67
2023-04-18T08:08:30.539Z,20.65
2023-04-18T08:11:17.658Z,19.70
2023-04-18T08:14:04.839Z,20.08
2023-04-18T08:16:52.271Z,20.05
2023-04-18T08:19:39.377Z,20.77
2023-04-18T08:22:26.660Z,20.15
2023-04-18T08:25:13.781Z,18.75
2023-04-18T08:28:00.895Z,20.88
2023-04-18T08:30:51.476Z,20.67
2023-04-18T08:33:38.737Z,20.00
2023-04-18T08:36:26.202Z,19.67
2023-04-18T08:39:13.907Z,21.52
2023-04-18T08:42:06.513Z,20.30
2023-04-18T08:44:54.200Z,21.05
2023-04-18T08:47:42.088Z,19.95
2023-04-18T08:50:29.268Z,20.33
2023-04-18T08:53:17.933Z,19.58
2023-04-18T08:56:05.665Z,20.25
2023-04-18T08:58:53.594Z,20.08
2023-04-18T09:01:57.817Z,19.63
2023-04-18T09:04:56.466Z,20.70
2023-04-18T09:07:43.574Z,21.75
2023-04-18T09:10:33.359Z,20.45
2023-04-18T09:13:39.480Z,20.13
2023-04-18T09:16:27.956Z,20.35
2023-04-18T09:19:19.140Z,18.88
2023-04-18T09:22:08.455Z,21.95
2023-04-18T09:24:57.607Z,20.13
2023-04-18T09:27:44.728Z,21.00
2023-04-18T09:30:40.586Z,19.65
2023-04-18T09:33:32.655Z,20.55
2023-04-18T09:36:31.433Z,19.73
2023-04-18T09:39:28.512Z,19.02
2023-04-18T09:42:15.848Z,19.45
2023-04-18T09:45:05.960Z,20.88
2023-04-18T09:48:11.453Z,18.85
2023-04-18T09:51:05.606Z,18.70
2023-04-18T09:53:53.215Z,18.25
2023-04-18T09:56:44.015Z,18.90
2023-04-18T09:59:55.193Z,20.17
2023-04-18T10:02:50.531Z,18.77
2023-04-18T10:05:41.306Z,19.30
2023-04-18T10:08:28.824Z,18.45
2023-04-18T10:11:16.808Z,17.83
2023-04-18T10:14:12.142Z,17.58
2023-04-18T10:17:00.197Z,17.88
2023-04-18T10:20:05.897Z,17.58
2023-04-18T10:22:53.963Z,16.70
2023-04-18T10:25:41.449Z,16.50
2023-04-18T10:28:56.760Z,16.55
2023-04-18T10:31:48.053Z,16.85
2023-04-18T10:34:37.728Z,15.32
2023-04-18T10:37:27.020Z,16.50
2023-04-18T10:40:15.808Z,16.40
2023-04-18T10:43:02.974Z,15.57
2023-04-18T10:46:23.840Z,16.25
2023-04-18T10:49:30.295Z,14.68
2023-04-18T10:52:19.300Z,14.40
2023-04-18T10:55:09.187Z,14.07
2023-04-18T10:57:58.697Z,13.15
2023-04-18T11:00:48.368Z,13.23
2023-04-18T11:03:35.847Z,13.10
2023-04-18T11:06:32.581Z,12.77
2023-04-18T11:09:19.834Z,12.82
2023-04-18T11:12:15.136Z,12.13
2023-04-18T11:15:04.266Z,11.30
2023-04-18T11:17:58.015Z,11.13
2023-04-18T11:20:51.927Z,10.55
2023-04-18T11:23:39.050Z,10.27
2023-04-18T11:26:27.081Z,10.35
2023-04-18T11:29:14.259Z,9.85
2023-04-18T11:32:01.625Z,9.93
2023-04-18T11:34:52.008Z,10.32
2023-04-18T11:37:40.106Z,9.60
2023-04-18T11:40:27.422Z,10.38
2023-04-18T11:43:23.895Z,9.60
2023-04-18T11:46:11.898Z,9.45
2023-04-18T11:48:59.348Z,8.90
2023-04-18T11:51:47.604Z,9.70
2023-04-18T11:54:42.163Z,8.95
2023-04-18T11:57:32.192Z,9.07
2023-04-18T12:03:18.944Z,8.32
2023-04-18T12:06:06.588Z,7.75
2023-04-18T12:09:00.721Z,7.75
2023-04-18T12:12:04.269Z,8.40
2023-04-18T12:15:06.843Z,7.35
2023-04-18T12:18:01.248Z,7.15
2023-04-18T12:20:54.377Z,7.18
2023-04-18T12:23:42.991Z,7.18
2023-04-18T12:26:30.256Z,6.40
2023-04-18T12:29:20.143Z,6.93
2023-04-18T12:34:54.107Z,6.20
2023-04-18T12:37:41.401Z,6.80
2023-04-18T12:40:30.130Z,6.38
2023-04-18T12:43:17.889Z,5.95
2023-04-18T12:46:13.007Z,5.85
2023-04-18T12:49:00.520Z,6.03
2023-04-18T12:51:47.587Z,5.80
2023-04-18T12:54:36.747Z,5.93
2023-04-18T12:57:26.253Z,5.70
2023-04-18T13:00:14.017Z,5.82
2023-04-18T13:03:01.539Z,5.60
2023-04-18T13:05:57.034Z,6.07
2023-04-18T13:08:44.658Z,5.65
2023-04-18T13:11:31.711Z,5.28
2023-04-18T13:14:18.856Z,4.47
2023-04-18T13:17:06.390Z,5.20
2023-04-18T13:19:53.697Z,5.43
2023-04-18T13:22:45.975Z,5.35
2023-04-18T13:25:33.158Z,5.00
2023-04-18T13:28:20.334Z,5.57
2023-04-18T13:31:07.450Z,5.60
2023-04-18T13:33:54.645Z,5.90
2023-04-18T13:36:41.765Z,6.07
2023-04-18T13:39:53.272Z,5.38
2023-04-18T13:42:40.623Z,5.88
2023-04-18T13:45:27.871Z,5.20
2023-04-18T13:48:16.362Z,4.90
2023-04-18T13:51:03.825Z,5.28
2023-04-18T13:53:51.803Z,5.85
2023-04-18T13:56:39.008Z,5.38
2023-04-18T13:59:41.749Z,5.57
2023-04-18T14:02:40.804Z,5.85
2023-04-18T14:05:33.038Z,5.97
2023-04-18T14:08:29.559Z,6.68
2023-04-18T14:12:01.072Z,6.47
2023-04-18T14:14:49.227Z,6.28
2023-04-18T14:17:36.363Z,6.05
2023-04-18T14:20:23.651Z,6.57
2023-04-18T14:23:11.047Z,6.85
2023-04-18T14:25:58.252Z,5.95
2023-04-18T14:28:46.286Z,6.43
2023-04-18T14:31:40.306Z,6.70
2023-04-18T14:34:27.385Z,6.38
2023-04-18T14:37:15.724Z,6.22
2023-04-18T14:40:04.813Z,5.82
2023-04-18T14:42:51.932Z,5.78
2023-04-18T14:45:39.118Z,5.38
2023-04-18T14:48:26.346Z,5.30
2023-04-18T14:51:15.239Z,6.00
2023-04-18T14:54:26.964Z,5.93
2023-04-18T14:57:14.073Z,6.72
2023-04-18T15:00:01.163Z,6.43
2023-04-18T15:02:48.551Z,6.75
2023-04-18T15:05:38.822Z,7.05
2023-04-18T15:08:26.162Z,6.95
2023-04-18T15:11:13.819Z,6.68
2023-04-18T15:14:00.956Z,7.70
2023-04-18T15:16:51.234Z,7.20
2023-04-18T15:19:38.426Z,7.45
2023-04-18T15:22:25.687Z,7.95
2023-04-18T15:25:16.477Z,7.72
2023-04-18T15:28:03.702Z,7.82
2023-04-18T15:30:50.799Z,7.60
2023-04-18T15:33:37.888Z,7.75
2023-04-18T15:36:25.242Z,6.70
2023-04-18T15:39:12.361Z,7.35
2023-04-18T15:41:59.467Z,7.00
2023-04-18T15:44:46.827Z,6.70
2023-04-18T15:47:34.644Z,6.40
2023-04-18T15:50:24.014Z,6.72
2023-04-18T15:53:11.080Z,7.05
2023-04-18T15:56:01.050Z,6.65
2023-04-18T16:02:00.918Z,6.50
2023-04-18T16:04:54.173Z,6.00
2023-04-18T16:07:47.009Z,6.00
2023-04-18T16:10:38.545Z,5.70
2023-04-18T16:13:26.461Z,5.70
2023-04-18T16:16:13.898Z,5.75
2023-04-18T16:19:01.509Z,5.57
2023-04-18T16:21:50.068Z,5.40
2023-04-18T16:24:37.167Z,5.22
2023-04-18T16:27:24.280Z,5.63
2023-04-18T16:30:11.970Z,5.82
2023-04-18T16:33:00.818Z,6.22
2023-04-18T16:35:48.074Z,5.47
2023-04-18T16:38:35.406Z,5.75
2023-04-18T16:41:22.596Z,5.50
2023-04-18T16:44:09.910Z,5.60
2023-04-18T16:46:57.030Z,5.25
2023-04-18T16:49:45.422Z,6.00
2023-04-18T16:52:32.776Z,4.75
2023-04-18T16:55:19.887Z,5.80
2023-04-18T16:58:07.486Z,5.75
2023-04-18T17:00:54.719Z,5.78
2023-04-18T17:03:42.528Z,5.78
2023-04-18T17:06:31.535Z,6.55
2023-04-18T17:09:19.930Z,5.53
2023-04-18T17:12:07.114Z,5.70
2023-04-18T17:14:54.194Z,5.57
2023-04-18T17:17:41.462Z,5.63
2023-04-18T17:20:29.149Z,6.00
2023-04-18T17:23:16.700Z,5.40
2023-04-18T17:26:03.897Z,5.40
2023-04-18T17:28:51.545Z,6.13
2023-04-18T17:31:40.871Z,5.43
2023-04-18T17:34:28.235Z,5.65
2023-04-18T17:37:17.706Z,5.45
2023-04-18T17:40:10.353Z,5.63
2023-04-18T17:42:58.129Z,5.43
2023-04-18T17:45:45.745Z,5.68
2023-04-18T17:48:33.093Z,5.60
2023-04-18T17:51:20.912Z,5.85
2023-04-18T17:54:08.754Z,6.30
2023-04-18T17:56:59.208Z,6.00
2023-04-18T17:59:46.834Z,6.22
2023-04-18T18:02:36.063Z,6.75
2023-04-18T18:05:26.328Z,6.47
2023-04-18T18:08:13.918Z,7.22
2023-04-18T18:11:03.340Z,6.43
2023-04-18T18:13:54.837Z,6.15
2023-04-18T18:16:42.367Z,7.13
2023-04-18T18:19:30.234Z,7.25
2023-04-18T18:22:18.623Z,7.65
2023-04-18T18:25:06.703Z,6.88
2023-04-18T18:27:55.759Z,7.20
2023-04-18T18:30:43.669Z,7.75
2023-04-18T18:33:32.258Z,7.30
2023-04-18T18:36:19.964Z,8.50
2023-04-18T18:39:07.124Z,7.65
2023-04-18T18:41:56.183Z,8.30
2023-04-18T18:44:45.376Z,7.55
2023-04-18T18:47:36.337Z,7.60
2023-04-18T18:50:26.361Z,7.65
2023-04-18T18:53:17.516Z,8.40
2023-04-18T18:56:05.508Z,8.57
2023-04-18T18:58:56.293Z,8.63
2023-04-18T19:01:44.467Z,8.55
2023-04-18T19:04:34.803Z,8.05
2023-04-18T19:07:23.563Z,9.75
2023-04-18T19:10:12.041Z,8.52
2023-04-18T19:13:00.857Z,9.45
2023-04-18T19:15:49.132Z,10.68
2023-04-18T19:18:40.082Z,10.52
2023-04-18T19:21:29.562Z,43.75
2023-04-18T19:24:18.118Z,67.10
2023-04-18T19:27:05.811Z,90.40
2023-04-18T19:29:53.857Z,38.97
2023-04-18T19:32:41.837Z,16.33
2023-04-18T19:35:29.749Z,11.98
2023-04-18T19:38:19.308Z,12.02
2023-04-18T19:41:08.085Z,8.98
2023-04-18T19:43:57.237Z,9.38
2023-04-18T19:46:45.926Z,8.38
2023-04-18T19:49:36.261Z,9.82
2023-04-18T19:52:24.313Z,9.98
2023-04-18T19:55:12.125Z,14.88
2023-04-18T19:58:00.384Z,12.93
2023-04-18T20:00:48.318Z,9.45
2023-04-18T20:03:37.185Z,10.43
2023-04-18T20:06:27.165Z,10.65
2023-04-18T20:09:17.271Z,10.25
2023-04-18T20:12:05.088Z,9.63
2023-04-18T20:14:52.832Z,16.55
2023-04-18T20:17:40.726Z,25.55
2023-04-18T20:20:31.730Z,14.55
2023-04-18T20:23:22.581Z,8.73
2023-04-18T20:26:10.320Z,8.65
2023-04-18T20:28:57.969Z,8.23
2023-04-18T20:31:45.871Z,20.95
2023-04-18T20:34:33.524Z,21.15
2023-04-18T20:37:22.216Z,24.98
2023-04-18T20:40:10.565Z,34.10
2023-04-18T20:42:58.751Z,35.40
2023-04-18T20:45:53.151Z,16.98
2023-04-18T20:48:41.002Z,103.30
2023-04-18T20:51:28.745Z,38.83
2023-04-18T20:54:16.356Z,39.05
2023-04-18T20:57:04.247Z,33.92
2023-04-18T20:59:51.693Z,27.42
2023-04-18T21:02:39.017Z,22.02
2023-04-18T21:05:26.150Z,46.33
2023-04-18T21:08:13.216Z,37.80
2023-04-18T21:11:00.380Z,10.70
2023-04-18T21:13:47.453Z,8.93
2023-04-18T21:16:34.635Z,11.35
2023-04-18T21:19:21.876Z,12.68
2023-04-18T21:22:08.950Z,11.40
2023-04-18T21:24:56.032Z,12.98
2023-04-18T21:27:43.121Z,9.30
2023-04-18T21:30:30.590Z,9.48
2023-04-18T21:33:17.720Z,8.98
2023-04-18T21:36:05.152Z,9.70
2023-04-18T21:38:53.817Z,10.00
2023-04-18T21:41:41.361Z,9.18
2023-04-18T21:44:28.481Z,10.68
2023-04-18T21:47:15.755Z,10.10
2023-04-18T21:50:03.871Z,10.13
2023-04-18T21:52:50.904Z,9.95
2023-04-18T21:55:37.982Z,10.43
2023-04-18T21:58:25.033Z,10.27
2023-04-18T22:01:12.590Z,10.93
2023-04-18T22:04:00.303Z,10.02
2023-04-18T22:06:47.543Z,11.05
2023-04-18T22:09:37.853Z,12.00
2023-04-18T22:12:26.568Z,10.65
2023-04-18T22:15:13.812Z,11.75
2023-04-18T22:18:01.309Z,11.23
2023-04-18T22:20:48.391Z,10.38
2023-04-18T22:23:35.652Z,10.85
2023-04-18T22:26:22.891Z,10.55
2023-04-18T22:29:10.096Z,11.77
2023-04-18T22:31:57.118Z,11.35
2023-04-18T22:34:44.960Z,11.38
2023-04-18T22:37:32.027Z,10.75
2023-04-18T22:40:19.138Z,10.43
2023-04-18T22:43:06.177Z,10.88
2023-04-18T22:45:53.326Z,10.90
2023-04-18T22:48:40.561Z,11.07
2023-04-18T22:51:28.809Z,11.40
2023-04-18T22:54:16.254Z,11.13
2023-04-18T22:57:03.589Z,11.13
2023-04-18T22:59:50.645Z,10.82
2023-04-18T23:03:36.512Z,11.35
2023-04-18T23:06:23.839Z,11.55
2023-04-18T23:09:10.907Z,11.55
2023-04-18T23:11:58.313Z,12.10
2023-04-18T23:14:45.457Z,13.65
2023-04-18T23:17:34.942Z,11.57
2023-04-18T23:20:24.000Z,12.27
2023-04-18T23:23:11.057Z,11.77
2023-04-18T23:25:58.281Z,13.20
2023-04-18T23:28:45.495Z,13.52
2023-04-18T23:31:35.450Z,13.00
2023-04-18T23:37:12.607Z,12.77
2023-04-18T23:40:00.213Z,12.95
2023-04-18T23:42:47.399Z,12.43
2023-04-18T23:45:34.501Z,14.30
2023-04-18T23:48:21.628Z,14.05
2023-04-18T23:51:08.736Z,15.32
2023-04-18T23:53:55.876Z,15.27
2023-04-18T23:56:42.937Z,15.80
2023-04-18T23:59:30.018Z,15.55
